createdAt,value
2024-05-09T00:00:35.582Z,101119.03
2024-05-09T00:03:10.754Z,101134.91
2024-05-09T00:05:40.864Z,101128.56
2024-05-09T00:08:08.856Z,101129.41
2024-05-09T00:10:38.034Z,101122.25
2024-05-09T00:13:07.064Z,101127.38
2024-05-09T00:15:34.661Z,101132.06
2024-05-09T00:18:02.434Z,101132.22
2024-05-09T00:20:37.362Z,101123.88
2024-05-09T00:23:07.685Z,101125.88
2024-05-09T00:25:34.841Z,101125.56
2024-05-09T00:28:01.661Z,101130.88
2024-05-09T00:30:34.260Z,101143.38
2024-05-09T00:33:04.250Z,101132.34
2024-05-09T00:35:31.715Z,101133.16
2024-05-09T00:37:58.399Z,101139.03
2024-05-09T00:40:35.321Z,101143.72
2024-05-09T00:43:06.500Z,101140.34
2024-05-09T00:45:34.336Z,101139.69
2024-05-09T00:48:07.463Z,101142.03
2024-05-09T00:50:38.043Z,101133.13
2024-05-09T00:53:06.643Z,101125.91
2024-05-09T00:55:35.106Z,101130.97
2024-05-09T00:58:02.463Z,101124.41
2024-05-09T01:00:37.766Z,101119.34
2024-05-09T01:03:06.997Z,101132.59
2024-05-09T01:05:34.897Z,101130.41
2024-05-09T01:08:02.998Z,101122.25
2024-05-09T01:10:34.473Z,101132.41
2024-05-09T01:13:03.690Z,101127.81
2024-05-09T01:15:30.388Z,101129.72
2024-05-09T01:17:58.100Z,101129.84
2024-05-09T01:20:36.518Z,101125.13
2024-05-09T01:23:09.122Z,101130.69
2024-05-09T01:25:35.982Z,101127.59
2024-05-09T01:28:02.634Z,101127.34
2024-05-09T01:30:34.670Z,101134.75
2024-05-09T01:33:04.188Z,101135.50
2024-05-09T01:35:31.351Z,101129.84
2024-05-09T01:37:58.048Z,101135.13
2024-05-09T01:40:33.568Z,101139.66
2024-05-09T01:43:04.784Z,101145.97
2024-05-09T01:45:31.624Z,101143.41
2024-05-09T01:47:58.680Z,101144.50
2024-05-09T01:50:36.714Z,101141.84
2024-05-09T01:53:07.040Z,101146.78
2024-05-09T01:55:33.684Z,101143.88
2024-05-09T01:58:00.455Z,101149.34
2024-05-09T02:00:37.689Z,101149.44
2024-05-09T02:03:10.180Z,101147.38
2024-05-09T02:05:37.774Z,101138.81
2024-05-09T02:08:05.500Z,101141.31
2024-05-09T02:10:33.260Z,101142.22
2024-05-09T02:13:00.478Z,101150.66
2024-05-09T02:15:27.034Z,101152.47
2024-05-09T02:17:53.751Z,101145.31
2024-05-09T02:20:30.118Z,101147.94
2024-05-09T02:23:03.851Z,101156.66
2024-05-09T02:25:31.013Z,101155.06
2024-05-09T02:27:57.555Z,101154.09
2024-05-09T02:30:31.086Z,101165.03
2024-05-09T02:33:05.849Z,101162.66
2024-05-09T02:35:32.894Z,101161.97
2024-05-09T02:37:59.887Z,101166.16
2024-05-09T02:40:35.494Z,101165.03
2024-05-09T02:43:05.566Z,101167.75
2024-05-09T02:45:32.403Z,101151.53
2024-05-09T02:47:59.298Z,101151.06
2024-05-09T02:50:34.402Z,101153.44
2024-05-09T02:53:05.604Z,101150.44
2024-05-09T02:55:32.559Z,101148.81
2024-05-09T02:57:59.305Z,101152.34
2024-05-09T03:00:34.686Z,101157.44
2024-05-09T03:03:08.523Z,101158.91
2024-05-09T03:05:36.565Z,101153.34
2024-05-09T03:08:03.620Z,101157.84
2024-05-09T03:10:35.663Z,101161.50
2024-05-09T03:13:14.154Z,101162.50
2024-05-09T03:15:42.548Z,101161.81
2024-05-09T03:18:09.681Z,101158.72
2024-05-09T03:20:37.279Z,101158.69
2024-05-09T03:23:05.397Z,101159.00
2024-05-09T03:25:32.406Z,101162.13
2024-05-09T03:27:59.488Z,101156.28
2024-05-09T03:30:38.117Z,101167.38
2024-05-09T03:33:13.540Z,101168.78
2024-05-09T03:35:41.193Z,101162.97
2024-05-09T03:38:07.863Z,101159.47
2024-05-09T03:40:34.486Z,101156.81
2024-05-09T03:43:01.055Z,101167.47
2024-05-09T03:45:27.606Z,101158.41
2024-05-09T03:47:54.385Z,101158.72
2024-05-09T03:50:26.469Z,101167.28
2024-05-09T03:53:00.865Z,101160.78
2024-05-09T03:55:27.919Z,101162.81
2024-05-09T03:57:54.482Z,101158.97
2024-05-09T04:00:30.560Z,101160.22
2024-05-09T04:03:03.904Z,101168.53
2024-05-09T04:05:31.228Z,101166.25
2024-05-09T04:07:58.294Z,101168.19
2024-05-09T04:10:32.385Z,101161.13
2024-05-09T04:13:00.601Z,101167.59
2024-05-09T04:15:27.225Z,101168.44
2024-05-09T04:17:54.046Z,101171.53
2024-05-09T04:20:32.826Z,101175.72
2024-05-09T04:23:06.029Z,101164.78
2024-05-09T04:25:32.746Z,101179.59
2024-05-09T04:27:59.494Z,101174.84
2024-05-09T04:30:34.844Z,101176.91
2024-05-09T04:33:07.075Z,101181.56
2024-05-09T04:35:35.249Z,101182.78
2024-05-09T04:38:02.026Z,101181.41
2024-05-09T04:40:33.808Z,101181.06
2024-05-09T04:43:04.184Z,101184.13
2024-05-09T04:45:30.871Z,101185.88
2024-05-09T04:47:57.849Z,101184.09
2024-05-09T04:50:32.717Z,101188.34
2024-05-09T04:53:03.666Z,101193.94
2024-05-09T04:55:30.479Z,101191.13
2024-05-09T04:57:57.068Z,101194.84
2024-05-09T05:00:32.403Z,101193.97
2024-05-09T05:03:08.463Z,101200.50
2024-05-09T05:05:40.309Z,101198.75
2024-05-09T05:08:18.818Z,101201.44
2024-05-09T05:10:47.161Z,101208.81
2024-05-09T05:13:23.700Z,101202.72
2024-05-09T05:15:58.301Z,101202.28
2024-05-09T05:18:28.801Z,101193.38
2024-05-09T05:20:56.688Z,101190.22
2024-05-09T05:23:23.943Z,101204.94
2024-05-09T05:25:53.215Z,101195.28
2024-05-09T05:28:20.765Z,101201.13
2024-05-09T05:30:47.530Z,101198.00
2024-05-09T05:33:16.087Z,101196.28
2024-05-09T05:35:42.951Z,101192.91
2024-05-09T05:38:10.614Z,101198.25
2024-05-09T05:40:38.896Z,101194.50
2024-05-09T05:43:08.691Z,101190.06
2024-05-09T05:45:35.939Z,101196.59
2024-05-09T05:48:05.775Z,101194.53
2024-05-09T05:50:36.510Z,101199.78
2024-05-09T05:53:10.013Z,101200.34
2024-05-09T05:55:39.438Z,101193.38
2024-05-09T05:58:09.511Z,101202.44
2024-05-09T06:00:39.046Z,101197.59
2024-05-09T06:03:10.478Z,101199.28
2024-05-09T06:05:40.331Z,101205.00
2024-05-09T06:08:07.827Z,101205.50
2024-05-09T06:10:38.612Z,101205.69
2024-05-09T06:13:08.028Z,101214.22
2024-05-09T06:15:34.634Z,101212.19
2024-05-09T06:18:01.823Z,101211.53
2024-05-09T06:20:35.548Z,101219.22
2024-05-09T06:23:08.052Z,101220.22
2024-05-09T06:25:36.171Z,101212.16
2024-05-09T06:28:03.065Z,101212.84
2024-05-09T06:30:37.443Z,101216.63
2024-05-09T06:33:08.971Z,101206.59
2024-05-09T06:35:36.647Z,101210.25
2024-05-09T06:38:03.792Z,101214.53
2024-05-09T06:40:37.156Z,101206.59
2024-05-09T06:43:10.976Z,101203.38
2024-05-09T06:45:39.655Z,101201.31
2024-05-09T06:48:07.365Z,101208.94
2024-05-09T06:50:37.863Z,101210.13
2024-05-09T06:53:06.007Z,101215.66
2024-05-09T06:55:32.689Z,101212.97
2024-05-09T06:57:59.245Z,101209.69
2024-05-09T07:00:30.659Z,101212.19
2024-05-09T07:03:08.958Z,101211.53
2024-05-09T07:05:35.837Z,101199.53
2024-05-09T07:08:03.024Z,101203.81
2024-05-09T07:10:34.796Z,101196.69
2024-05-09T07:13:02.779Z,101197.78
2024-05-09T07:15:29.294Z,101202.78
2024-05-09T07:17:56.085Z,101201.22
2024-05-09T07:20:31.866Z,101187.78
2024-05-09T07:23:02.569Z,101195.94
2024-05-09T07:25:29.509Z,101201.69
2024-05-09T07:27:56.165Z,101200.59
2024-05-09T07:30:27.771Z,101189.75
2024-05-09T07:33:00.403Z,101202.91
2024-05-09T07:35:27.726Z,101204.38
2024-05-09T07:37:54.764Z,101208.13
2024-05-09T07:40:31.831Z,101204.59
2024-05-09T07:43:07.325Z,101197.41
2024-05-09T07:52:23.662Z,101187.59
2024-05-09T07:53:38.710Z,101191.50
2024-05-09T07:56:07.929Z,101186.22
2024-05-09T07:58:35.651Z,101183.00
2024-05-09T08:01:05.466Z,101184.19
2024-05-09T08:03:32.424Z,101180.63
2024-05-09T08:05:59.138Z,101178.59
2024-05-09T08:08:26.632Z,101167.00
2024-05-09T08:10:53.424Z,101169.88
2024-05-09T08:13:20.292Z,101175.09
2024-05-09T08:15:46.980Z,101175.09
2024-05-09T08:18:13.794Z,101165.75
2024-05-09T08:20:41.370Z,101173.59
2024-05-09T08:23:08.091Z,101174.03
2024-05-09T08:25:34.657Z,101167.03
2024-05-09T08:28:01.385Z,101170.34
2024-05-09T08:30:33.748Z,101174.94
2024-05-09T08:33:04.972Z,101165.56
2024-05-09T08:35:32.508Z,101169.75
2024-05-09T08:37:59.297Z,101159.56
2024-05-09T08:40:33.421Z,101169.31
2024-05-09T08:43:03.457Z,101170.13
2024-05-09T08:45:31.331Z,101160.31
2024-05-09T08:48:01.357Z,101168.91
2024-05-09T08:50:36.090Z,101162.34
2024-05-09T08:53:05.706Z,101157.22
2024-05-09T08:55:32.600Z,101157.38
2024-05-09T08:58:01.193Z,101161.25
2024-05-09T09:00:35.883Z,101155.56
2024-05-09T09:03:07.640Z,101166.75
2024-05-09T09:05:39.076Z,101155.53
2024-05-09T09:08:08.065Z,101151.22
2024-05-09T09:10:35.242Z,101152.72
2024-05-09T09:13:04.453Z,101149.69
2024-05-09T09:15:31.686Z,101163.59
2024-05-09T09:18:01.334Z,101154.28
2024-05-09T09:20:35.837Z,101161.69
2024-05-09T09:23:04.027Z,101160.00
2024-05-09T09:25:30.907Z,101159.19
2024-05-09T09:28:00.537Z,101150.28
2024-05-09T09:30:35.269Z,101153.44
2024-05-09T09:33:08.665Z,101155.19
2024-05-09T09:35:38.855Z,101160.34
2024-05-09T09:38:07.779Z,101152.69
2024-05-09T09:40:40.659Z,101154.72
2024-05-09T09:43:14.957Z,101154.81
2024-05-09T09:45:44.063Z,101160.81
2024-05-09T09:48:14.631Z,101157.53
2024-05-09T09:50:42.248Z,101151.06
2024-05-09T09:53:10.283Z,101163.66
2024-05-09T09:55:38.062Z,101160.97
2024-05-09T09:58:06.440Z,101156.47
2024-05-09T10:00:34.484Z,101160.38
2024-05-09T10:03:01.818Z,101149.31
2024-05-09T10:05:29.206Z,101156.16
2024-05-09T10:07:57.418Z,101143.75
2024-05-09T10:10:31.723Z,101153.28
2024-05-09T10:13:00.746Z,101149.66
2024-05-09T10:15:27.900Z,101152.78
2024-05-09T10:17:54.805Z,101143.59
2024-05-09T10:20:27.991Z,101148.84
2024-05-09T10:22:57.621Z,101146.28
2024-05-09T10:25:25.117Z,101151.19
2024-05-09T10:27:55.638Z,101146.63
2024-05-09T10:30:29.930Z,101148.28
2024-05-09T10:33:02.640Z,101143.16
2024-05-09T10:35:32.000Z,101138.38
2024-05-09T10:38:06.323Z,101140.91
2024-05-09T10:40:33.226Z,101134.50
2024-05-09T10:43:03.316Z,101135.44
2024-05-09T10:45:32.761Z,101119.13
2024-05-09T10:47:59.721Z,101133.28
2024-05-09T10:50:29.233Z,101128.53
2024-05-09T10:53:00.520Z,101124.41
2024-05-09T10:55:27.723Z,101134.19
2024-05-09T10:57:54.434Z,101133.25
2024-05-09T11:00:27.615Z,101121.91
2024-05-09T11:03:00.082Z,101127.00
2024-05-09T11:05:26.922Z,101131.38
2024-05-09T11:07:53.712Z,101112.72
2024-05-09T11:10:27.416Z,101117.72
2024-05-09T11:12:58.597Z,101110.19
2024-05-09T11:15:25.994Z,101112.88
2024-05-09T11:17:52.749Z,101119.50
2024-05-09T11:20:26.627Z,101110.03
2024-05-09T11:22:57.699Z,101119.31
2024-05-09T11:25:24.402Z,101118.06
2024-05-09T11:27:51.182Z,101104.00
2024-05-09T11:30:26.732Z,101105.22
2024-05-09T11:32:58.823Z,101096.72
2024-05-09T11:35:26.567Z,101094.59
2024-05-09T11:37:53.207Z,101085.38
2024-05-09T11:40:25.469Z,101094.63
2024-05-09T11:42:55.257Z,101086.66
2024-05-09T11:45:22.064Z,101084.22
2024-05-09T11:47:49.381Z,101084.97
2024-05-09T11:50:26.403Z,101084.38
2024-05-09T11:52:56.450Z,101075.19
2024-05-09T11:55:27.378Z,101075.97
2024-05-09T11:57:55.505Z,101080.75
2024-05-09T12:00:29.642Z,101081.16
2024-05-09T12:03:05.167Z,101078.84
2024-05-09T12:05:32.867Z,101078.78
2024-05-09T12:08:00.032Z,101071.06
2024-05-09T12:10:33.039Z,101075.22
2024-05-09T12:13:02.860Z,101071.94
2024-05-09T12:15:30.089Z,101067.47
2024-05-09T12:17:59.074Z,101064.88
2024-05-09T12:20:35.481Z,101062.94
2024-05-09T12:23:05.545Z,101070.84
2024-05-09T12:25:32.240Z,101067.00
2024-05-09T12:27:58.977Z,101061.38
2024-05-09T12:30:35.063Z,101055.59
2024-05-09T12:33:05.677Z,101050.69
2024-05-09T12:35:32.647Z,101053.13
2024-05-09T12:37:59.194Z,101052.63
2024-05-09T12:40:34.404Z,101043.03
2024-05-09T12:43:04.613Z,101046.59
2024-05-09T12:45:31.570Z,101045.25
2024-05-09T12:47:58.472Z,101048.00
2024-05-09T12:50:31.738Z,101039.47
2024-05-09T12:53:00.484Z,101037.50
2024-05-09T12:55:28.337Z,101030.69
2024-05-09T12:57:57.270Z,101030.19
2024-05-09T13:00:31.055Z,101028.63
2024-05-09T13:03:00.959Z,101011.25
2024-05-09T13:05:28.064Z,101015.28
2024-05-09T13:07:56.714Z,101011.09
2024-05-09T13:10:30.719Z,101013.91
2024-05-09T13:12:59.756Z,101004.22
2024-05-09T13:15:26.739Z,101001.56
2024-05-09T13:17:53.451Z,100996.94
2024-05-09T13:20:29.076Z,100996.50
2024-05-09T13:23:02.056Z,100994.03
2024-05-09T13:25:28.730Z,100985.53
2024-05-09T13:27:56.427Z,100998.59
2024-05-09T13:30:29.768Z,100989.97
2024-05-09T13:33:05.546Z,100984.13
2024-05-09T13:35:34.395Z,101003.38
2024-05-09T13:38:02.154Z,100985.53
2024-05-09T13:40:33.711Z,100983.69
2024-05-09T13:43:03.336Z,100984.38
2024-05-09T13:45:30.140Z,100984.41
2024-05-09T13:47:57.171Z,100974.84
2024-05-09T13:50:32.915Z,100972.84
2024-05-09T13:53:02.388Z,100962.91
2024-05-09T13:55:29.037Z,100960.31
2024-05-09T13:57:56.114Z,100954.31
2024-05-09T14:00:37.326Z,100954.16
2024-05-09T14:03:09.878Z,100947.88
2024-05-09T14:05:36.864Z,100949.88
2024-05-09T14:08:03.764Z,100947.13
2024-05-09T14:10:31.954Z,100952.47
2024-05-09T14:12:59.864Z,100950.28
2024-05-09T14:15:26.608Z,100950.91
2024-05-09T14:17:53.730Z,100939.31
2024-05-09T14:20:30.310Z,100938.97
2024-05-09T14:22:59.650Z,100941.88
2024-05-09T14:25:31.796Z,100939.28
2024-05-09T14:27:58.774Z,100938.09
2024-05-09T14:30:34.144Z,100933.22
2024-05-09T14:33:04.633Z,100920.00
2024-05-09T14:35:31.474Z,100917.16
2024-05-09T14:37:58.509Z,100921.88
2024-05-09T14:40:36.602Z,100916.22
2024-05-09T14:43:08.233Z,100921.25
2024-05-09T14:45:35.096Z,100910.06
2024-05-09T14:48:02.808Z,100907.31
2024-05-09T14:50:35.841Z,100906.91
2024-05-09T14:53:06.498Z,100909.25
2024-05-09T14:55:36.179Z,100906.78
2024-05-09T14:58:05.243Z,100905.63
2024-05-09T15:00:35.927Z,100905.78
2024-05-09T15:03:05.060Z,100898.03
2024-05-09T15:05:31.779Z,100885.81
2024-05-09T15:07:59.369Z,100883.47
2024-05-09T15:10:33.985Z,100886.44
2024-05-09T15:13:04.142Z,100871.75
2024-05-09T15:15:31.076Z,100869.75
2024-05-09T15:17:57.974Z,100877.81
2024-05-09T15:20:32.971Z,100867.09
2024-05-09T15:23:02.760Z,100862.41
2024-05-09T15:25:29.635Z,100850.00
2024-05-09T15:27:56.355Z,100890.56
2024-05-09T15:30:30.600Z,100861.59
2024-05-09T15:32:59.628Z,100872.50
2024-05-09T15:35:26.409Z,100856.34
2024-05-09T15:37:53.001Z,100869.66
2024-05-09T15:40:31.661Z,100875.53
2024-05-09T15:43:06.291Z,100827.25
2024-05-09T15:45:34.723Z,100832.72
2024-05-09T15:48:02.241Z,100847.97
2024-05-09T15:50:36.741Z,100858.13
2024-05-09T15:53:07.618Z,100832.13
2024-05-09T15:55:35.268Z,100849.00
2024-05-09T15:58:03.699Z,100851.16
2024-05-09T16:00:38.330Z,100842.00
2024-05-09T16:03:09.660Z,100840.03
2024-05-09T16:05:37.091Z,100827.72
2024-05-09T16:08:04.648Z,100834.63
2024-05-09T16:10:33.303Z,100828.03
2024-05-09T16:13:02.390Z,100820.38
2024-05-09T16:15:30.316Z,100824.59
2024-05-09T16:17:57.126Z,100838.44
2024-05-09T16:20:34.587Z,100826.50
2024-05-09T16:23:06.515Z,100842.09
2024-05-09T16:25:33.124Z,100812.91
2024-05-09T16:28:00.166Z,100803.81
2024-05-09T16:30:31.898Z,100808.00
2024-05-09T16:33:02.537Z,100834.50
2024-05-09T16:35:29.522Z,100806.81
2024-05-09T16:37:56.307Z,100803.34
2024-05-09T16:40:30.336Z,100817.34
2024-05-09T16:43:04.532Z,100829.47
2024-05-09T16:45:31.549Z,100807.56
2024-05-09T16:47:59.715Z,100817.84
2024-05-09T16:50:32.008Z,100799.97
2024-05-09T16:53:00.645Z,100829.00
2024-05-09T16:55:27.369Z,100799.81
2024-05-09T16:57:54.624Z,100819.56
2024-05-09T17:00:34.316Z,100777.66
2024-05-09T17:03:07.204Z,100826.06
2024-05-09T17:05:35.420Z,100825.06
2024-05-09T17:08:02.840Z,100801.47
2024-05-09T17:10:33.406Z,100794.06
2024-05-09T17:13:06.370Z,100784.78
2024-05-09T17:15:34.373Z,100792.78
2024-05-09T17:18:01.734Z,100822.16
2024-05-09T17:20:33.544Z,100787.59
2024-05-09T17:23:03.433Z,100783.78
2024-05-09T17:25:30.053Z,100785.06
2024-05-09T17:27:57.079Z,100786.16
2024-05-09T17:30:32.059Z,100792.56
2024-05-09T17:33:03.989Z,100802.66
2024-05-09T17:35:31.705Z,100808.59
2024-05-09T17:37:59.662Z,100778.69
2024-05-09T17:40:33.117Z,100781.25
2024-05-09T17:43:03.334Z,100776.53
2024-05-09T17:45:33.416Z,100777.94
2024-05-09T17:48:01.517Z,100796.38
2024-05-09T17:50:35.059Z,100771.44
2024-05-09T17:53:04.034Z,100810.25
2024-05-09T17:55:30.743Z,100775.63
2024-05-09T17:57:57.582Z,100793.91
2024-05-09T18:00:33.752Z,100771.72
2024-05-09T18:03:06.420Z,100765.19
2024-05-09T18:05:34.122Z,100788.84
2024-05-09T18:08:00.808Z,100780.09
2024-05-09T18:10:35.140Z,100777.22
2024-05-09T18:13:05.839Z,100761.22
2024-05-09T18:15:33.197Z,100801.47
2024-05-09T18:18:00.482Z,100789.00
2024-05-09T18:20:37.328Z,100774.88
2024-05-09T18:23:09.933Z,100771.53
2024-05-09T18:25:36.526Z,100791.91
2024-05-09T18:28:03.816Z,100810.38
2024-05-09T18:30:34.981Z,100793.53
2024-05-09T18:33:04.924Z,100808.41
2024-05-09T18:35:32.603Z,100757.63
2024-05-09T18:37:59.225Z,100779.31
2024-05-09T18:40:33.675Z,100808.25
2024-05-09T18:43:06.123Z,100764.34
2024-05-09T18:45:34.317Z,100785.34
2024-05-09T18:48:01.387Z,100765.09
2024-05-09T18:50:34.613Z,100812.84
2024-05-09T18:53:10.414Z,100801.22
2024-05-09T18:55:38.003Z,100767.28
2024-05-09T18:58:05.190Z,100791.75
2024-05-09T19:00:36.245Z,100809.59
2024-05-09T19:03:11.722Z,100826.59
2024-05-09T19:05:41.245Z,100792.78
2024-05-09T19:08:08.829Z,100792.09
2024-05-09T19:10:37.364Z,100833.28
2024-05-09T19:13:07.161Z,100815.94
2024-05-09T19:15:37.832Z,100807.50
2024-05-09T19:18:05.167Z,100783.53
2024-05-09T19:20:34.677Z,100796.75
2024-05-09T19:23:02.701Z,100792.00
2024-05-09T19:25:29.330Z,100795.53
2024-05-09T19:27:55.959Z,100824.50
2024-05-09T19:30:30.381Z,100786.84
2024-05-09T19:33:05.966Z,100787.25
2024-05-09T19:35:35.138Z,100767.81
2024-05-09T19:38:02.166Z,100796.75
2024-05-09T19:40:32.988Z,100806.97
2024-05-09T19:43:02.691Z,100840.25
2024-05-09T19:45:30.014Z,100841.09
2024-05-09T19:47:57.172Z,100806.72
2024-05-09T19:50:32.218Z,100835.09
2024-05-09T19:53:06.848Z,100784.28
2024-05-09T19:55:34.275Z,100828.63
2024-05-09T19:58:07.094Z,100849.31
2024-05-09T20:00:36.988Z,100852.97
2024-05-09T20:03:06.092Z,100840.97
2024-05-09T20:05:33.460Z,100811.50
2024-05-09T20:08:00.216Z,100850.56
2024-05-09T20:10:31.808Z,100839.53
2024-05-09T20:13:00.729Z,100829.59
2024-05-09T20:15:29.765Z,100854.19
2024-05-09T20:17:56.944Z,100857.09
2024-05-09T20:20:32.609Z,100852.66
2024-05-09T20:23:05.134Z,100851.78
2024-05-09T20:25:31.723Z,100862.63
2024-05-09T20:27:58.372Z,100852.28
2024-05-09T20:30:32.953Z,100841.78
2024-05-09T20:33:02.462Z,100864.38
2024-05-09T20:35:32.571Z,100856.41
2024-05-09T20:38:02.204Z,100861.59
2024-05-09T20:40:34.151Z,100828.41
2024-05-09T20:43:04.312Z,100846.41
2024-05-09T20:45:31.054Z,100862.03
2024-05-09T20:47:57.865Z,100868.50
2024-05-09T20:50:35.372Z,100861.91
2024-05-09T20:53:07.177Z,100851.44
2024-05-09T20:55:33.715Z,100861.13
2024-05-09T20:58:00.440Z,100867.69
2024-05-09T21:00:35.175Z,100842.22
2024-05-09T21:03:07.355Z,100841.97
2024-05-09T21:05:34.811Z,100866.81
2024-05-09T21:08:01.750Z,100869.16
2024-05-09T21:10:32.693Z,100873.69
2024-05-09T21:13:00.545Z,100871.38
2024-05-09T21:15:27.129Z,100878.41
2024-05-09T21:17:53.691Z,100866.75
2024-05-09T21:20:24.243Z,100855.13
2024-05-09T21:22:57.429Z,100883.19
2024-05-09T21:25:23.996Z,100863.13
2024-05-09T21:27:53.551Z,100861.78
2024-05-09T21:30:31.535Z,100865.25
2024-05-09T21:33:07.508Z,100868.16
2024-05-09T21:35:34.251Z,100872.13
2024-05-09T21:38:00.985Z,100852.47
2024-05-09T21:40:34.434Z,100866.22
2024-05-09T21:43:03.211Z,100858.16
2024-05-09T21:45:29.918Z,100875.53
2024-05-09T21:47:56.829Z,100870.00
2024-05-09T21:50:31.690Z,100855.16
2024-05-09T21:53:05.410Z,100864.00
2024-05-09T21:55:32.054Z,100868.78
2024-05-09T21:57:58.590Z,100878.69
2024-05-09T22:00:35.433Z,100873.63
2024-05-09T22:03:05.202Z,100865.88
2024-05-09T22:05:35.319Z,100880.34
2024-05-09T22:08:02.235Z,100871.44
2024-05-09T22:10:33.989Z,100876.66
2024-05-09T22:13:03.461Z,100862.41
2024-05-09T22:15:30.377Z,100862.59
2024-05-09T22:17:57.588Z,100858.78
2024-05-09T22:20:33.711Z,100864.63
2024-05-09T22:23:04.440Z,100881.69
2024-05-09T22:25:33.781Z,100860.06
2024-05-09T22:28:04.373Z,100862.00
2024-05-09T22:30:36.063Z,100856.00
2024-05-09T22:33:17.102Z,100870.00
2024-05-09T22:35:44.932Z,100883.38
2024-05-09T22:38:11.530Z,100889.84
2024-05-09T22:40:46.398Z,100864.41
2024-05-09T22:43:24.292Z,100863.47
2024-05-09T22:45:52.849Z,100880.16
2024-05-09T22:48:19.940Z,100867.84
2024-05-09T22:50:46.603Z,100878.34
2024-05-09T22:53:13.137Z,100878.03
2024-05-09T22:55:39.652Z,100872.41
2024-05-09T22:58:06.484Z,100871.91
2024-05-09T23:00:33.675Z,100877.28
2024-05-09T23:03:01.513Z,100868.66
2024-05-09T23:05:28.699Z,100873.97
2024-05-09T23:07:55.696Z,100870.34
2024-05-09T23:10:30.820Z,100870.88
2024-05-09T23:13:05.823Z,100848.41
2024-05-09T23:15:32.670Z,100868.38
2024-05-09T23:17:59.426Z,100870.25
2024-05-09T23:20:33.517Z,100856.72
2024-05-09T23:23:05.156Z,100873.06
2024-05-09T23:25:31.864Z,100870.78
2024-05-09T23:27:58.713Z,100870.69
2024-05-09T23:30:33.986Z,100854.06
2024-05-09T23:33:05.790Z,100864.41
2024-05-09T23:35:32.486Z,100854.25
2024-05-09T23:37:59.143Z,100860.25
2024-05-09T23:40:36.820Z,100855.97
2024-05-09T23:43:06.717Z,100861.25
2024-05-09T23:45:33.650Z,100862.44
2024-05-09T23:48:00.505Z,100852.97
2024-05-09T23:50:34.258Z,100858.31
2024-05-09T23:53:04.615Z,100840.50
2024-05-09T23:55:32.101Z,100856.16
2024-05-09T23:57:59.209Z,100845.50
